sensor_id;sensor_type;location;lat;lon;timestamp;pressure;altitude;pressure_sealevel;temperature;humidity
41945;BME280;63122;52.424;13.458;2023-03-11T00:01:12;98216.88;;;3.36;100.00
41945;BME280;63122;52.424;13.458;2023-03-11T00:03:08;98223.38;;;3.31;100.00
41945;BME280;63122;52.424;13.458;2023-03-11T00:05:04;98233.66;;;3.33;100.00
41945;BME280;63122;52.424;13.458;2023-03-11T00:07:00;98250.41;;;3.30;100.00
41945;BME280;63122;52.424;13.458;2023-03-11T00:08:55;98252.88;;;3.24;100.00
41945;BME280;63122;52.424;13.458;2023-03-11T00:10:55;98260.03;;;3.13;100.00
41945;BME280;63122;52.424;13.458;2023-03-11T00:12:51;98268.66;;;3.06;100.00
41945;BME280;63122;52.424;13.458;2023-03-11T00:14:46;98275.03;;;3.03;100.00
41945;BME280;63122;52.424;13.458;2023-03-11T00:16:42;98282.50;;;2.98;100.00
41945;BME280;63122;52.424;13.458;2023-03-11T00:18:37;98296.31;;;2.82;100.00
41945;BME280;63122;52.424;13.458;2023-03-11T00:20:34;98298.94;;;2.82;100.00
41945;BME280;63122;52.424;13.458;2023-03-11T00:22:30;98303.94;;;2.75;100.00
41945;BME280;63122;52.424;13.458;2023-03-11T00:24:25;98315.00;;;2.69;100.00
41945;BME280;63122;52.424;13.458;2023-03-11T00:26:23;98313.81;;;2.55;100.00
41945;BME280;63122;52.424;13.458;2023-03-11T00:28:18;98321.75;;;2.45;100.00
41945;BME280;63122;52.424;13.458;2023-03-11T00:30:19;98330.22;;;2.47;100.00
41945;BME280;63122;52.424;13.458;2023-03-11T00:32:14;98332.97;;;2.45;100.00
41945;BME280;63122;52.424;13.458;2023-03-11T00:34:10;98330.69;;;2.51;100.00
41945;BME280;63122;52.424;13.458;2023-03-11T00:36:06;98337.38;;;2.53;100.00
41945;BME280;63122;52.424;13.458;2023-03-11T00:38:04;98339.66;;;2.48;100.00
41945;BME280;63122;52.424;13.458;2023-03-11T00:39:59;98349.88;;;2.41;100.00
41945;BME280;63122;52.424;13.458;2023-03-11T00:42:02;98344.84;;;2.40;100.00
41945;BME280;63122;52.424;13.458;2023-03-11T00:43:59;98354.59;;;2.38;100.00
41945;BME280;63122;52.424;13.458;2023-03-11T00:45:54;98353.75;;;2.37;100.00
41945;BME280;63122;52.424;13.458;2023-03-11T00:47:50;98366.75;;;2.37;100.00
41945;BME280;63122;52.424;13.458;2023-03-11T00:49:45;98366.56;;;2.30;100.00
41945;BME280;63122;52.424;13.458;2023-03-11T00:51:40;98363.78;;;2.24;100.00
41945;BME280;63122;52.424;13.458;2023-03-11T00:53:36;98365.69;;;2.22;100.00
41945;BME280;63122;52.424;13.458;2023-03-11T00:55:33;98367.81;;;2.18;100.00
41945;BME280;63122;52.424;13.458;2023-03-11T00:57:32;98375.63;;;2.18;100.00
41945;BME280;63122;52.424;13.458;2023-03-11T00:59:27;98377.19;;;2.11;100.00
41945;BME280;63122;52.424;13.458;2023-03-11T01:01:22;98388.56;;;2.10;100.00
41945;BME280;63122;52.424;13.458;2023-03-11T01:03:17;98392.81;;;2.11;100.00
41945;BME280;63122;52.424;13.458;2023-03-11T01:05:13;98400.09;;;2.07;100.00
41945;BME280;63122;52.424;13.458;2023-03-11T01:07:08;98396.66;;;2.07;100.00
41945;BME280;63122;52.424;13.458;2023-03-11T01:09:03;98412.56;;;2.04;100.00
41945;BME280;63122;52.424;13.458;2023-03-11T01:10:59;98417.94;;;2.02;100.00
41945;BME280;63122;52.424;13.458;2023-03-11T01:12:57;98424.13;;;2.01;100.00
41945;BME280;63122;52.424;13.458;2023-03-11T01:14:53;98417.28;;;2.00;100.00
41945;BME280;63122;52.424;13.458;2023-03-11T01:16:48;98429.63;;;1.98;100.00
41945;BME280;63122;52.424;13.458;2023-03-11T01:18:45;98433.78;;;1.91;100.00
41945;BME280;63122;52.424;13.458;2023-03-11T01:20:40;98430.50;;;1.89;100.00
41945;BME280;63122;52.424;13.458;2023-03-11T01:22:37;98454.88;;;1.87;100.00
41945;BME280;63122;52.424;13.458;2023-03-11T01:24:32;98460.06;;;1.87;100.00
41945;BME280;63122;52.424;13.458;2023-03-11T01:26:27;98467.66;;;1.81;100.00
41945;BME280;63122;52.424;13.458;2023-03-11T01:28:25;98473.81;;;1.80;100.00
41945;BME280;63122;52.424;13.458;2023-03-11T01:30:22;98473.16;;;1.78;100.00
41945;BME280;63122;52.424;13.458;2023-03-11T01:32:18;98486.44;;;1.75;100.00
41945;BME280;63122;52.424;13.458;2023-03-11T01:34:13;98487.56;;;1.72;100.00
41945;BME280;63122;52.424;13.458;2023-03-11T01:36:08;98494.53;;;1.71;100.00
41945;BME280;63122;52.424;13.458;2023-03-11T01:38:03;98499.91;;;1.70;100.00
41945;BME280;63122;52.424;13.458;2023-03-11T01:39:59;98502.50;;;1.70;100.00
41945;BME280;63122;52.424;13.458;2023-03-11T01:41:54;98512.91;;;1.70;100.00
41945;BME280;63122;52.424;13.458;2023-03-11T01:43:54;98515.22;;;1.73;100.00
41945;BME280;63122;52.424;13.458;2023-03-11T01:46:10;98520.84;;;1.68;100.00
41945;BME280;63122;52.424;13.458;2023-03-11T01:48:06;98526.56;;;1.72;100.00
41945;BME280;63122;52.424;13.458;2023-03-11T01:50:05;98542.28;;;1.52;100.00
41945;BME280;63122;52.424;13.458;2023-03-11T01:52:04;98549.78;;;1.55;100.00
41945;BME280;63122;52.424;13.458;2023-03-11T01:54:03;98557.75;;;1.54;100.00
41945;BME280;63122;52.424;13.458;2023-03-11T01:56:00;98565.41;;;1.46;100.00
41945;BME280;63122;52.424;13.458;2023-03-11T01:57:57;98564.50;;;1.37;100.00
41945;BME280;63122;52.424;13.458;2023-03-11T01:59:57;98570.84;;;1.24;100.00
41945;BME280;63122;52.424;13.458;2023-03-11T02:02:01;98578.78;;;1.23;100.00
41945;BME280;63122;52.424;13.458;2023-03-11T02:04:01;98582.91;;;1.15;100.00
41945;BME280;63122;52.424;13.458;2023-03-11T02:06:00;98597.97;;;1.12;100.00
41945;BME280;63122;52.424;13.458;2023-03-11T02:07:57;98597.97;;;1.12;100.00
41945;BME280;63122;52.424;13.458;2023-03-11T02:09:52;98609.75;;;1.06;100.00
41945;BME280;63122;52.424;13.458;2023-03-11T02:11:47;98607.94;;;1.07;100.00
41945;BME280;63122;52.424;13.458;2023-03-11T02:13:44;98618.22;;;1.08;100.00
41945;BME280;63122;52.424;13.458;2023-03-11T02:15:43;98623.69;;;1.05;100.00
41945;BME280;63122;52.424;13.458;2023-03-11T02:17:40;98634.88;;;1.06;100.00
41945;BME280;63122;52.424;13.458;2023-03-11T02:19:45;98639.69;;;1.00;100.00
41945;BME280;63122;52.424;13.458;2023-03-11T02:21:45;98653.34;;;1.03;100.00
41945;BME280;63122;52.424;13.458;2023-03-11T02:23:45;98655.13;;;1.02;100.00
41945;BME280;63122;52.424;13.458;2023-03-11T02:25:49;98667.00;;;0.95;100.00
41945;BME280;63122;52.424;13.458;2023-03-11T02:27:51;98675.06;;;0.92;100.00
41945;BME280;63122;52.424;13.458;2023-03-11T02:29:47;98693.41;;;0.90;100.00
41945;BME280;63122;52.424;13.458;2023-03-11T02:31:45;98687.09;;;0.93;100.00
41945;BME280;63122;52.424;13.458;2023-03-11T02:33:44;98692.84;;;0.96;100.00
41945;BME280;63122;52.424;13.458;2023-03-11T02:35:40;98716.91;;;0.98;100.00
41945;BME280;63122;52.424;13.458;2023-03-11T02:37:35;98716.22;;;0.96;100.00
41945;BME280;63122;52.424;13.458;2023-03-11T02:39:32;98725.09;;;0.94;100.00
41945;BME280;63122;52.424;13.458;2023-03-11T02:41:30;98733.03;;;0.92;100.00
41945;BME280;63122;52.424;13.458;2023-03-11T02:43:32;98733.56;;;0.96;100.00
41945;BME280;63122;52.424;13.458;2023-03-11T02:45:29;98741.38;;;0.86;100.00
41945;BME280;63122;52.424;13.458;2023-03-11T02:47:25;98756.13;;;0.85;100.00
41945;BME280;63122;52.424;13.458;2023-03-11T02:49:21;98765.69;;;0.85;100.00
41945;BME280;63122;52.424;13.458;2023-03-11T02:51:16;98775.81;;;0.88;100.00
41945;BME280;63122;52.424;13.458;2023-03-11T02:53:12;98783.44;;;0.90;100.00
41945;BME280;63122;52.424;13.458;2023-03-11T02:55:08;98785.50;;;0.86;100.00
41945;BME280;63122;52.424;13.458;2023-03-11T02:57:03;98793.16;;;0.88;100.00
41945;BME280;63122;52.424;13.458;2023-03-11T02:59:01;98802.59;;;0.89;100.00
41945;BME280;63122;52.424;13.458;2023-03-11T03:00:56;98807.09;;;0.86;100.00
41945;BME280;63122;52.424;13.458;2023-03-11T03:02:51;98819.25;;;0.86;100.00
41945;BME280;63122;52.424;13.458;2023-03-11T03:04:47;98811.22;;;0.89;100.00
41945;BME280;63122;52.424;13.458;2023-03-11T03:06:42;98823.78;;;0.84;100.00
41945;BME280;63122;52.424;13.458;2023-03-11T03:08:37;98827.56;;;0.80;100.00
41945;BME280;63122;52.424;13.458;2023-03-11T03:10:32;98823.22;;;0.80;100.00
41945;BME280;63122;52.424;13.458;2023-03-11T03:12:28;98845.59;;;0.71;100.00
41945;BME280;63122;52.424;13.458;2023-03-11T03:14:25;98849.69;;;0.64;100.00
41945;BME280;63122;52.424;13.458;2023-03-11T03:16:21;98856.81;;;0.72;100.00
41945;BME280;63122;52.424;13.458;2023-03-11T03:18:16;98859.81;;;0.77;100.00
41945;BME280;63122;52.424;13.458;2023-03-11T03:20:12;98865.81;;;0.78;100.00
41945;BME280;63122;52.424;13.458;2023-03-11T03:22:07;98870.06;;;0.79;100.00
41945;BME280;63122;52.424;13.458;2023-03-11T03:24:03;98882.47;;;0.65;100.00
41945;BME280;63122;52.424;13.458;2023-03-11T03:25:58;98901.88;;;0.71;100.00
41945;BME280;63122;52.424;13.458;2023-03-11T03:27:53;98903.78;;;0.69;100.00
41945;BME280;63122;52.424;13.458;2023-03-11T03:29:51;98906.38;;;0.69;100.00
41945;BME280;63122;52.424;13.458;2023-03-11T03:31:46;98909.69;;;0.71;100.00
41945;BME280;63122;52.424;13.458;2023-03-11T03:33:42;98931.41;;;0.70;100.00
41945;BME280;63122;52.424;13.458;2023-03-11T03:35:39;98936.81;;;0.67;100.00
41945;BME280;63122;52.424;13.458;2023-03-11T03:37:36;98947.31;;;0.55;100.00
41945;BME280;63122;52.424;13.458;2023-03-11T03:39:32;98956.09;;;0.64;100.00
41945;BME280;63122;52.424;13.458;2023-03-11T03:41:27;98966.75;;;0.61;100.00
41945;BME280;63122;52.424;13.458;2023-03-11T03:43:22;98975.91;;;0.65;100.00
41945;BME280;63122;52.424;13.458;2023-03-11T03:45:30;98990.63;;;0.65;100.00
41945;BME280;63122;52.424;13.458;2023-03-11T03:47:26;98985.38;;;0.55;100.00
41945;BME280;63122;52.424;13.458;2023-03-11T03:49:20;99001.56;;;0.37;100.00
41945;BME280;63122;52.424;13.458;2023-03-11T03:51:16;99022.16;;;0.39;100.00
41945;BME280;63122;52.424;13.458;2023-03-11T03:53:11;99015.22;;;0.39;100.00
41945;BME280;63122;52.424;13.458;2023-03-11T03:55:07;99023.81;;;0.40;100.00
41945;BME280;63122;52.424;13.458;2023-03-11T03:57:02;99030.66;;;0.41;100.00
41945;BME280;63122;52.424;13.458;2023-03-11T03:58:58;99036.94;;;0.38;100.00
41945;BME280;63122;52.424;13.458;2023-03-11T04:00:57;99047.22;;;0.28;100.00
41945;BME280;63122;52.424;13.458;2023-03-11T04:02:52;99048.06;;;0.29;100.00
41945;BME280;63122;52.424;13.458;2023-03-11T04:04:48;99052.16;;;0.32;100.00
41945;BME280;63122;52.424;13.458;2023-03-11T04:06:43;99065.84;;;0.34;100.00
41945;BME280;63122;52.424;13.458;2023-03-11T04:08:38;99076.47;;;0.31;100.00
41945;BME280;63122;52.424;13.458;2023-03-11T04:10:33;99078.81;;;0.34;100.00
41945;BME280;63122;52.424;13.458;2023-03-11T04:12:28;99090.97;;;0.33;100.00
41945;BME280;63122;52.424;13.458;2023-03-11T04:14:24;99081.28;;;0.35;100.00
41945;BME280;63122;52.424;13.458;2023-03-11T04:16:22;99087.03;;;0.39;100.00
41945;BME280;63122;52.424;13.458;2023-03-11T04:18:18;99098.00;;;0.42;100.00
41945;BME280;63122;52.424;13.458;2023-03-11T04:20:14;99109.78;;;0.47;100.00
41945;BME280;63122;52.424;13.458;2023-03-11T04:22:10;99110.78;;;0.34;100.00
41945;BME280;63122;52.424;13.458;2023-03-11T04:24:05;99092.47;;;0.36;100.00
41945;BME280;63122;52.424;13.458;2023-03-11T04:26:02;99118.81;;;0.31;100.00
41945;BME280;63122;52.424;13.458;2023-03-11T04:27:58;99124.25;;;0.28;100.00
41945;BME280;63122;52.424;13.458;2023-03-11T04:29:53;99124.94;;;0.30;100.00
41945;BME280;63122;52.424;13.458;2023-03-11T04:31:51;99119.06;;;0.28;100.00
41945;BME280;63122;52.424;13.458;2023-03-11T04:33:46;99133.34;;;0.22;100.00
41945;BME280;63122;52.424;13.458;2023-03-11T04:35:41;99139.56;;;0.20;100.00
41945;BME280;63122;52.424;13.458;2023-03-11T04:37:37;99138.19;;;0.16;100.00
41945;BME280;63122;52.424;13.458;2023-03-11T04:39:32;99146.41;;;0.21;100.00
41945;BME280;63122;52.424;13.458;2023-03-11T04:41:27;99165.63;;;0.30;100.00
41945;BME280;63122;52.424;13.458;2023-03-11T04:43:22;99168.22;;;0.30;100.00
41945;BME280;63122;52.424;13.458;2023-03-11T04:45:17;99178.72;;;0.28;100.00
41945;BME280;63122;52.424;13.458;2023-03-11T04:47:16;99171.41;;;0.33;100.00
41945;BME280;63122;52.424;13.458;2023-03-11T04:49:13;99177.19;;;0.25;100.00
41945;BME280;63122;52.424;13.458;2023-03-11T04:51:08;99183.91;;;0.28;100.00
41945;BME280;63122;52.424;13.458;2023-03-11T04:53:03;99189.66;;;0.32;100.00
41945;BME280;63122;52.424;13.458;2023-03-11T04:54:58;99189.22;;;0.26;100.00
41945;BME280;63122;52.424;13.458;2023-03-11T04:56:54;99201.94;;;0.30;100.00
41945;BME280;63122;52.424;13.458;2023-03-11T04:58:49;99206.66;;;0.24;100.00
41945;BME280;63122;52.424;13.458;2023-03-11T05:00:44;99206.78;;;0.23;100.00
41945;BME280;63122;52.424;13.458;2023-03-11T05:02:42;99209.13;;;0.26;100.00
41945;BME280;63122;52.424;13.458;2023-03-11T05:04:37;99217.38;;;0.31;100.00
41945;BME280;63122;52.424;13.458;2023-03-11T05:06:32;99225.97;;;0.32;100.00
41945;BME280;63122;52.424;13.458;2023-03-11T05:08:28;99225.97;;;0.32;100.00
41945;BME280;63122;52.424;13.458;2023-03-11T05:10:22;99238.00;;;0.33;100.00
41945;BME280;63122;52.424;13.458;2023-03-11T05:12:18;99238.25;;;0.30;100.00
41945;BME280;63122;52.424;13.458;2023-03-11T05:14:13;99250.16;;;0.32;100.00
41945;BME280;63122;52.424;13.458;2023-03-11T05:16:09;99259.47;;;0.35;100.00
41945;BME280;63122;52.424;13.458;2023-03-11T05:18:07;99268.34;;;0.32;100.00
41945;BME280;63122;52.424;13.458;2023-03-11T05:20:04;99269.53;;;0.28;100.00
41945;BME280;63122;52.424;13.458;2023-03-11T05:22:00;99275.97;;;0.34;100.00
41945;BME280;63122;52.424;13.458;2023-03-11T05:23:56;99279.75;;;0.30;100.00
41945;BME280;63122;52.424;13.458;2023-03-11T05:25:51;99287.19;;;0.23;100.00
41945;BME280;63122;52.424;13.458;2023-03-11T05:27:46;99292.25;;;0.24;100.00
41945;BME280;63122;52.424;13.458;2023-03-11T05:29:41;99302.28;;;0.29;100.00
41945;BME280;63122;52.424;13.458;2023-03-11T05:31:37;99307.47;;;0.29;100.00
41945;BME280;63122;52.424;13.458;2023-03-11T05:33:35;99303.94;;;0.30;100.00
41945;BME280;63122;52.424;13.458;2023-03-11T05:35:31;99310.28;;;0.26;100.00
41945;BME280;63122;52.424;13.458;2023-03-11T05:37:26;99319.38;;;0.32;100.00
41945;BME280;63122;52.424;13.458;2023-03-11T05:39:21;99322.56;;;0.35;100.00
41945;BME280;63122;52.424;13.458;2023-03-11T05:41:16;99319.38;;;0.32;100.00
41945;BME280;63122;52.424;13.458;2023-03-11T05:43:12;99323.06;;;0.29;100.00
41945;BME280;63122;52.424;13.458;2023-03-11T05:45:08;99336.72;;;0.31;100.00
41945;BME280;63122;52.424;13.458;2023-03-11T05:47:04;99334.94;;;0.32;100.00
41945;BME280;63122;52.424;13.458;2023-03-11T05:49:02;99338.38;;;0.32;100.00
41945;BME280;63122;52.424;13.458;2023-03-11T05:50:57;99348.84;;;0.31;100.00
41945;BME280;63122;52.424;13.458;2023-03-11T05:52:53;99354.75;;;0.33;100.00
41945;BME280;63122;52.424;13.458;2023-03-11T05:54:48;99367.16;;;0.29;100.00
41945;BME280;63122;52.424;13.458;2023-03-11T05:56:44;99371.50;;;0.28;100.00
41945;BME280;63122;52.424;13.458;2023-03-11T05:58:40;99372.91;;;0.33;100.00
41945;BME280;63122;52.424;13.458;2023-03-11T06:00:36;99380.00;;;0.31;100.00
41945;BME280;63122;52.424;13.458;2023-03-11T06:02:31;99372.22;;;0.31;100.00
41945;BME280;63122;52.424;13.458;2023-03-11T06:04:28;99381.06;;;0.28;100.00
41945;BME280;63122;52.424;13.458;2023-03-11T06:06:24;99381.16;;;0.26;100.00
41945;BME280;63122;52.424;13.458;2023-03-11T06:08:20;99385.41;;;0.27;100.00
41945;BME280;63122;52.424;13.458;2023-03-11T06:10:16;99388.13;;;0.26;100.00
41945;BME280;63122;52.424;13.458;2023-03-11T06:12:11;99393.44;;;0.24;100.00
41945;BME280;63122;52.424;13.458;2023-03-11T06:14:06;99392.25;;;0.28;100.00
41945;BME280;63122;52.424;13.458;2023-03-11T06:16:01;99407.47;;;0.33;100.00
41945;BME280;63122;52.424;13.458;2023-03-11T06:17:57;99420.47;;;0.33;100.00
41945;BME280;63122;52.424;13.458;2023-03-11T06:19:55;99414.31;;;0.34;100.00
41945;BME280;63122;52.424;13.458;2023-03-11T06:21:50;99415.97;;;0.35;100.00
41945;BME280;63122;52.424;13.458;2023-03-11T06:23:45;99421.25;;;0.34;100.00
41945;BME280;63122;52.424;13.458;2023-03-11T06:25:41;99424.69;;;0.34;100.00
41945;BME280;63122;52.424;13.458;2023-03-11T06:27:36;99430.47;;;0.38;100.00
41945;BME280;63122;52.424;13.458;2023-03-11T06:29:31;99435.78;;;0.36;100.00
41945;BME280;63122;52.424;13.458;2023-03-11T06:31:28;99444.63;;;0.34;100.00
41945;BME280;63122;52.424;13.458;2023-03-11T06:33:24;99448.38;;;0.30;100.00
41945;BME280;63122;52.424;13.458;2023-03-11T06:35:22;99447.56;;;0.29;100.00
41945;BME280;63122;52.424;13.458;2023-03-11T06:37:18;99461.25;;;0.31;100.00
41945;BME280;63122;52.424;13.458;2023-03-11T06:39:16;99467.13;;;0.22;100.00
41945;BME280;63122;52.424;13.458;2023-03-11T06:41:12;99472.31;;;0.22;100.00
41945;BME280;63122;52.424;13.458;2023-03-11T06:43:07;99474.09;;;0.21;100.00
41945;BME280;63122;52.424;13.458;2023-03-11T06:45:03;99474.66;;;0.25;100.00
41945;BME280;63122;52.424;13.458;2023-03-11T06:46:58;99491.44;;;0.32;100.00
41945;BME280;63122;52.424;13.458;2023-03-11T06:48:53;99489.34;;;0.37;100.00
41945;BME280;63122;52.424;13.458;2023-03-11T06:50:58;99495.56;;;0.23;100.00
41945;BME280;63122;52.424;13.458;2023-03-11T06:52:53;99489.41;;;0.24;100.00
41945;BME280;63122;52.424;13.458;2023-03-11T06:54:49;99504.13;;;0.24;100.00
41945;BME280;63122;52.424;13.458;2023-03-11T06:56:44;99508.13;;;0.17;100.00
41945;BME280;63122;52.424;13.458;2023-03-11T06:58:40;99520.06;;;0.19;100.00
41945;BME280;63122;52.424;13.458;2023-03-11T07:00:36;99522.88;;;0.16;100.00
41945;BME280;63122;52.424;13.458;2023-03-11T07:02:33;99513.31;;;0.17;100.00
41945;BME280;63122;52.424;13.458;2023-03-11T07:04:29;99533.13;;;0.18;100.00
41945;BME280;63122;52.424;13.458;2023-03-11T07:06:27;99534.91;;;0.17;100.00
41945;BME280;63122;52.424;13.458;2023-03-11T07:08:23;99537.00;;;0.12;100.00
41945;BME280;63122;52.424;13.458;2023-03-11T07:10:18;99531.69;;;0.02;100.00
41945;BME280;63122;52.424;13.458;2023-03-11T07:12:14;99535.06;;;0.03;100.00
41945;BME280;63122;52.424;13.458;2023-03-11T07:14:10;99534.41;;;0.12;100.00
41945;BME280;63122;52.424;13.458;2023-03-11T07:16:07;99540.88;;;0.06;100.00
41945;BME280;63122;52.424;13.458;2023-03-11T07:18:03;99558.69;;;0.11;100.00
41945;BME280;63122;52.424;13.458;2023-03-11T07:19:59;99551.84;;;0.10;100.00
41945;BME280;63122;52.424;13.458;2023-03-11T07:21:56;99556.59;;;0.16;100.00
41945;BME280;63122;52.424;13.458;2023-03-11T07:23:53;99570.50;;;0.15;100.00
41945;BME280;63122;52.424;13.458;2023-03-11T07:25:51;99580.06;;;0.14;100.00
41945;BME280;63122;52.424;13.458;2023-03-11T07:27:47;99593.50;;;0.20;100.00
41945;BME280;63122;52.424;13.458;2023-03-11T07:29:43;99578.41;;;0.13;100.00
41945;BME280;63122;52.424;13.458;2023-03-11T07:31:43;99580.16;;;0.13;100.00
41945;BME280;63122;52.424;13.458;2023-03-11T07:33:39;99599.75;;;0.17;100.00
41945;BME280;63122;52.424;13.458;2023-03-11T07:35:37;99609.53;;;0.13;100.00
41945;BME280;63122;52.424;13.458;2023-03-11T07:37:38;99606.84;;;0.15;100.00
41945;BME280;63122;52.424;13.458;2023-03-11T07:39:38;99618.63;;;0.19;100.00
41945;BME280;63122;52.424;13.458;2023-03-11T07:41:43;99623.09;;;0.17;100.00
41945;BME280;63122;52.424;13.458;2023-03-11T07:44:07;99635.00;;;0.20;100.00
41945;BME280;63122;52.424;13.458;2023-03-11T07:46:51;99621.81;;;0.23;100.00
41945;BME280;63122;52.424;13.458;2023-03-11T07:48:46;99634.38;;;0.29;100.00
41945;BME280;63122;52.424;13.458;2023-03-11T07:50:41;99630.31;;;0.25;100.00
41945;BME280;63122;52.424;13.458;2023-03-11T07:52:39;99639.88;;;0.24;100.00
41945;BME280;63122;52.424;13.458;2023-03-11T07:54:34;99645.69;;;0.28;100.00
41945;BME280;63122;52.424;13.458;2023-03-11T07:56:32;99648.41;;;0.38;100.00
41945;BME280;63122;52.424;13.458;2023-03-11T07:58:29;99664.00;;;0.38;100.00
41945;BME280;63122;52.424;13.458;2023-03-11T08:00:25;99658.75;;;0.51;100.00
41945;BME280;63122;52.424;13.458;2023-03-11T08:02:24;99669.84;;;0.53;100.00
41945;BME280;63122;52.424;13.458;2023-03-11T08:04:19;99656.53;;;0.57;100.00
41945;BME280;63122;52.424;13.458;2023-03-11T08:06:17;99673.16;;;0.55;100.00
41945;BME280;63122;52.424;13.458;2023-03-11T08:08:15;99683.34;;;0.58;100.00
41945;BME280;63122;52.424;13.458;2023-03-11T08:10:12;99695.47;;;0.57;100.00
41945;BME280;63122;52.424;13.458;2023-03-11T08:12:08;99680.84;;;0.56;100.00
41945;BME280;63122;52.424;13.458;2023-03-11T08:14:04;99690.28;;;0.57;100.00
41945;BME280;63122;52.424;13.458;2023-03-11T08:16:02;99692.66;;;0.61;100.00
41945;BME280;63122;52.424;13.458;2023-03-11T08:17:58;99709.56;;;0.66;100.00
41945;BME280;63122;52.424;13.458;2023-03-11T08:19:55;99700.84;;;0.67;100.00
41945;BME280;63122;52.424;13.458;2023-03-11T08:21:50;99700.00;;;0.67;100.00
41945;BME280;63122;52.424;13.458;2023-03-11T08:23:55;99713.41;;;0.61;100.00
41945;BME280;63122;52.424;13.458;2023-03-11T08:25:50;99720.16;;;0.63;100.00
41945;BME280;63122;52.424;13.458;2023-03-11T08:27:47;99725.41;;;0.75;100.00
41945;BME280;63122;52.424;13.458;2023-03-11T08:29:43;99717.75;;;0.73;100.00
41945;BME280;63122;52.424;13.458;2023-03-11T08:31:39;99739.22;;;0.75;100.00
41945;BME280;63122;52.424;13.458;2023-03-11T08:33:35;99742.09;;;0.83;100.00
41945;BME280;63122;52.424;13.458;2023-03-11T08:35:31;99743.91;;;0.94;100.00
41945;BME280;63122;52.424;13.458;2023-03-11T08:37:27;99749.81;;;0.96;100.00
41945;BME280;63122;52.424;13.458;2023-03-11T08:39:27;99745.72;;;1.05;100.00
41945;BME280;63122;52.424;13.458;2023-03-11T08:41:23;99747.88;;;1.11;100.00
41945;BME280;63122;52.424;13.458;2023-03-11T08:43:21;99760.06;;;1.22;100.00
41945;BME280;63122;52.424;13.458;2023-03-11T08:45:17;99759.53;;;1.06;100.00
41945;BME280;63122;52.424;13.458;2023-03-11T08:47:14;99763.91;;;1.05;100.00
41945;BME280;63122;52.424;13.458;2023-03-11T08:49:10;99775.53;;;1.24;100.00
41945;BME280;63122;52.424;13.458;2023-03-11T08:51:10;99779.34;;;1.31;100.00
41945;BME280;63122;52.424;13.458;2023-03-11T08:53:06;99775.31;;;1.27;100.00
41945;BME280;63122;52.424;13.458;2023-03-11T08:55:11;99782.84;;;1.19;100.00
41945;BME280;63122;52.424;13.458;2023-03-11T08:57:08;99798.34;;;1.32;100.00
41945;BME280;63122;52.424;13.458;2023-03-11T08:59:05;99785.44;;;1.19;100.00
41945;BME280;63122;52.424;13.458;2023-03-11T09:01:03;99795.25;;;1.15;100.00
41945;BME280;63122;52.424;13.458;2023-03-11T09:03:02;99801.47;;;1.12;100.00
41945;BME280;63122;52.424;13.458;2023-03-11T09:04:57;99795.97;;;1.17;100.00
41945;BME280;63122;52.424;13.458;2023-03-11T09:06:54;99801.81;;;1.32;100.00
41945;BME280;63122;52.424;13.458;2023-03-11T09:08:51;99811.75;;;1.38;100.00
41945;BME280;63122;52.424;13.458;2023-03-11T09:10:53;99814.56;;;1.35;100.00
41945;BME280;63122;52.424;13.458;2023-03-11T09:12:49;99807.22;;;1.29;100.00
41945;BME280;63122;52.424;13.458;2023-03-11T09:14:46;99812.19;;;1.32;100.00
41945;BME280;63122;52.424;13.458;2023-03-11T09:16:42;99819.75;;;1.35;100.00
41945;BME280;63122;52.424;13.458;2023-03-11T09:18:38;99814.09;;;1.30;100.00
41945;BME280;63122;52.424;13.458;2023-03-11T09:20:36;99820.50;;;1.13;100.00
41945;BME280;63122;52.424;13.458;2023-03-11T09:22:33;99821.25;;;1.26;100.00
41945;BME280;63122;52.424;13.458;2023-03-11T09:24:31;99829.16;;;1.25;100.00
41945;BME280;63122;52.424;13.458;2023-03-11T09:26:32;99833.06;;;1.19;100.00
41945;BME280;63122;52.424;13.458;2023-03-11T09:28:29;99831.16;;;1.21;100.00
41945;BME280;63122;52.424;13.458;2023-03-11T09:30:25;99843.66;;;1.40;100.00
41945;BME280;63122;52.424;13.458;2023-03-11T09:32:20;99840.34;;;1.50;100.00
41945;BME280;63122;52.424;13.458;2023-03-11T09:34:15;99833.78;;;1.57;100.00
41945;BME280;63122;52.424;13.458;2023-03-11T09:36:12;99841.22;;;1.62;100.00
41945;BME280;63122;52.424;13.458;2023-03-11T09:38:08;99850.09;;;1.59;100.00
41945;BME280;63122;52.424;13.458;2023-03-11T09:40:05;99846.81;;;1.68;100.00
41945;BME280;63122;52.424;13.458;2023-03-11T09:42:11;99851.84;;;1.58;100.00
41945;BME280;63122;52.424;13.458;2023-03-11T09:44:12;99856.19;;;1.47;100.00
41945;BME280;63122;52.424;13.458;2023-03-11T09:49:02;99864.16;;;1.32;100.00
41945;BME280;63122;52.424;13.458;2023-03-11T09:51:04;99862.44;;;1.44;100.00
41945;BME280;63122;52.424;13.458;2023-03-11T09:53:17;99866.66;;;1.34;100.00
41945;BME280;63122;52.424;13.458;2023-03-11T09:55:32;99864.22;;;1.43;100.00
41945;BME280;63122;52.424;13.458;2023-03-11T09:57:32;99880.13;;;1.39;100.00
41945;BME280;63122;52.424;13.458;2023-03-11T09:59:30;99882.84;;;1.37;100.00
41945;BME280;63122;52.424;13.458;2023-03-11T10:01:29;99884.97;;;1.32;100.00
41945;BME280;63122;52.424;13.458;2023-03-11T10:03:28;99891.88;;;1.20;100.00
41945;BME280;63122;52.424;13.458;2023-03-11T10:05:27;99891.16;;;1.18;100.00
41945;BME280;63122;52.424;13.458;2023-03-11T10:07:27;99897.88;;;1.21;100.00
41945;BME280;63122;52.424;13.458;2023-03-11T10:09:32;99896.72;;;1.00;100.00
41945;BME280;63122;52.424;13.458;2023-03-11T10:11:44;99908.69;;;0.90;100.00
41945;BME280;63122;52.424;13.458;2023-03-11T10:13:52;99911.88;;;0.94;100.00
41945;BME280;63122;52.424;13.458;2023-03-11T10:15:54;99909.06;;;0.97;100.00